Time;durP1;ratioP1;P1;durP2;ratioP2;P2;SDS_P1;SDS_P2;PMS_P1;PMS_P2;Temp;Humidity;BMP_temperature;BMP_pressure;BME280_temperature;BME280_humidity;BME280_pressure;Samples;Min_cycle;Max_cycle;Signal;HPM_P1;HPM_P2
2022/01/03 00:00:14;;;;;;;1.85;1.08;;;;;;;;;;5052009;28;20444;-46
2022/01/03 00:02:41;;;;;;;1.65;0.90;;;;;;;;;;5051161;28;20048;-47
2022/01/03 00:05:07;;;;;;;1.55;1.20;;;;;;;;;;5052056;28;20434;-44
2022/01/03 00:07:37;;;;;;;3.38;1.30;;;;;;;;;;5050785;28;20033;-44
2022/01/03 00:10:04;;;;;;;1.70;0.80;;;;;;;;;;5034077;28;20033;-45
2022/01/03 00:12:30;;;;;;;1.77;1.30;;;;;;;;;;5051038;28;20027;-45
2022/01/03 00:14:56;;;;;;;2.22;1.13;;;;;;;;;;5051096;28;20112;-44
2022/01/03 00:17:23;;;;;;;2.40;1.15;;;;;;;;;;5033360;28;20029;-45
2022/01/03 00:19:49;;;;;;;2.80;1.23;;;;;;;;;;5052047;28;20104;-44
2022/01/03 00:22:17;;;;;;;1.88;1.13;;;;;;;;;;5051418;28;20100;-45
2022/01/03 00:24:45;;;;;;;2.85;1.05;;;;;;;;;;5067572;28;20156;-45
2022/01/03 00:27:14;;;;;;;2.35;1.23;;;;;;;;;;5071687;28;20043;-46
2022/01/03 00:29:45;;;;;;;1.80;1.55;;;;;;;;;;5070929;28;20151;-44
2022/01/03 00:32:12;;;;;;;2.50;1.10;;;;;;;;;;5071610;28;20028;-45
2022/01/03 00:34:38;;;;;;;1.88;1.15;;;;;;;;;;5071067;28;20089;-45
2022/01/03 00:37:08;;;;;;;1.85;0.90;;;;;;;;;;5071379;28;20098;-44
2022/01/03 00:39:34;;;;;;;4.25;1.33;;;;;;;;;;5070725;28;20120;-44
2022/01/03 00:42:02;;;;;;;2.15;1.02;;;;;;;;;;5071351;28;20457;-45
2022/01/03 00:44:28;;;;;;;1.65;1.00;;;;;;;;;;5070920;28;20020;-45
2022/01/03 00:46:54;;;;;;;2.22;1.08;;;;;;;;;;5071585;28;20035;-45
2022/01/03 00:49:20;;;;;;;1.40;1.00;;;;;;;;;;5071498;28;20385;-52
2022/01/03 00:51:46;;;;;;;2.60;0.95;;;;;;;;;;5071062;28;20028;-45
2022/01/03 00:54:12;;;;;;;1.95;1.10;;;;;;;;;;5071312;28;20024;-45
2022/01/03 00:56:48;;;;;;;1.73;1.00;;;;;;;;;;5070717;28;20031;-44
2022/01/03 00:59:16;;;;;;;4.03;1.10;;;;;;;;;;5071797;28;20021;-45
2022/01/03 01:01:50;;;;;;;2.28;1.10;;;;;;;;;;5053578;28;20117;-45
2022/01/03 01:04:17;;;;;;;3.53;1.02;;;;;;;;;;5072055;28;20023;-44
2022/01/03 01:06:44;;;;;;;2.70;1.20;;;;;;;;;;5070339;28;20033;-45
2022/01/03 01:09:12;;;;;;;1.67;1.05;;;;;;;;;;5071719;28;20033;-45
2022/01/03 01:11:41;;;;;;;2.33;0.93;;;;;;;;;;5070450;28;20078;-46
2022/01/03 01:14:07;;;;;;;2.15;0.90;;;;;;;;;;5071215;28;20047;-45
2022/01/03 01:16:33;;;;;;;2.88;0.93;;;;;;;;;;5070578;28;20025;-44
2022/01/03 01:18:59;;;;;;;1.48;1.08;;;;;;;;;;5071256;28;20029;-44
2022/01/03 01:21:26;;;;;;;2.45;1.55;;;;;;;;;;5070522;28;20032;-46
2022/01/03 01:23:53;;;;;;;1.50;0.70;;;;;;;;;;5061407;28;20037;-45
2022/01/03 01:29:05;;;;;;;2.13;1.30;;;;;;;;;;5054861;28;20036;-44
2022/01/03 01:31:33;;;;;;;1.77;0.98;;;;;;;;;;5054032;28;20437;-45
2022/01/03 01:34:01;;;;;;;2.17;0.80;;;;;;;;;;5054958;28;20025;-44
2022/01/03 01:36:28;;;;;;;1.77;0.98;;;;;;;;;;5053482;28;20037;-44
2022/01/03 01:38:55;;;;;;;3.33;0.70;;;;;;;;;;5054653;28;20115;-44
2022/01/03 01:41:23;;;;;;;1.73;0.88;;;;;;;;;;5054144;28;20102;-52
2022/01/03 01:43:49;;;;;;;3.03;1.35;;;;;;;;;;5054162;28;20074;-44
2022/01/03 01:46:17;;;;;;;1.67;0.82;;;;;;;;;;5054588;28;20449;-44
2022/01/03 01:48:44;;;;;;;1.35;0.90;;;;;;;;;;5053583;28;20101;-46
2022/01/03 01:51:10;;;;;;;3.20;1.15;;;;;;;;;;5054435;28;20029;-44
2022/01/03 01:53:56;;;;;;;2.50;0.93;;;;;;;;;;5053417;28;20021;-45
2022/01/03 01:56:24;;;;;;;1.05;0.77;;;;;;;;;;5054122;28;20104;-51
2022/01/03 01:59:10;;;;;;;1.70;0.90;;;;;;;;;;5054075;28;20029;-44
2022/01/03 02:01:55;;;;;;;1.95;0.88;;;;;;;;;;5053420;28;20126;-44
2022/01/03 02:04:39;;;;;;;2.00;1.00;;;;;;;;;;5054147;28;20060;-44
2022/01/03 02:07:19;;;;;;;2.33;0.77;;;;;;;;;;5054562;28;20036;-45
2022/01/03 02:09:53;;;;;;;1.63;0.80;;;;;;;;;;5053165;28;20032;-44
2022/01/03 02:12:21;;;;;;;3.67;0.82;;;;;;;;;;5053655;28;20020;-45
2022/01/03 02:14:50;;;;;;;2.67;1.15;;;;;;;;;;5052972;28;20025;-45
2022/01/03 02:17:16;;;;;;;5.70;2.05;;;;;;;;;;5053595;28;20482;-45
2022/01/03 02:20:00;;;;;;;3.33;1.50;;;;;;;;;;5052895;28;20040;-45
2022/01/03 02:22:26;;;;;;;2.10;0.90;;;;;;;;;;5053338;28;20035;-54
2022/01/03 02:24:52;;;;;;;1.50;0.85;;;;;;;;;;5071289;28;20020;-44
2022/01/03 02:27:18;;;;;;;2.35;0.70;;;;;;;;;;5072689;28;20469;-44
2022/01/03 02:29:44;;;;;;;1.20;0.90;;;;;;;;;;5072875;28;20023;-44
2022/01/03 02:32:10;;;;;;;2.63;0.80;;;;;;;;;;5073331;28;20394;-45
2022/01/03 02:34:36;;;;;;;1.75;0.80;;;;;;;;;;5072747;28;20049;-44
2022/01/03 02:37:02;;;;;;;1.50;0.82;;;;;;;;;;5073107;28;20072;-44
2022/01/03 02:39:28;;;;;;;1.55;0.75;;;;;;;;;;5071869;28;20024;-45
2022/01/03 02:41:57;;;;;;;1.85;1.20;;;;;;;;;;5073139;28;20033;-44
2022/01/03 02:44:23;;;;;;;3.65;1.20;;;;;;;;;;5073171;28;20028;-52
2022/01/03 02:46:49;;;;;;;1.00;0.90;;;;;;;;;;5072639;28;20075;-44
2022/01/03 02:49:15;;;;;;;1.73;0.80;;;;;;;;;;5073273;28;20466;-45
2022/01/03 02:51:44;;;;;;;1.35;1.02;;;;;;;;;;5072270;28;20060;-44
2022/01/03 02:54:10;;;;;;;2.80;0.63;;;;;;;;;;5073079;28;20024;-45
2022/01/03 02:56:36;;;;;;;2.38;0.75;;;;;;;;;;5072389;28;20070;-44
2022/01/03 02:59:02;;;;;;;1.50;0.70;;;;;;;;;;5072796;28;20016;-44
2022/01/03 03:01:28;;;;;;;3.05;0.70;;;;;;;;;;5071979;28;20116;-48
2022/01/03 03:03:54;;;;;;;1.95;1.00;;;;;;;;;;5072936;28;20467;-45
2022/01/03 03:06:20;;;;;;;3.38;0.98;;;;;;;;;;5072922;28;20029;-45
2022/01/03 03:08:46;;;;;;;1.27;0.75;;;;;;;;;;5072034;28;20620;-44
2022/01/03 03:11:12;;;;;;;2.20;0.80;;;;;;;;;;5072929;28;20020;-44
2022/01/03 03:13:38;;;;;;;1.67;0.80;;;;;;;;;;5071602;28;20017;-44
2022/01/03 03:16:04;;;;;;;1.13;0.73;;;;;;;;;;5072808;28;20047;-45
2022/01/03 03:18:30;;;;;;;1.95;0.90;;;;;;;;;;5071771;28;20454;-44
2022/01/03 03:20:58;;;;;;;2.15;1.10;;;;;;;;;;5072460;28;20029;-46
2022/01/03 03:23:24;;;;;;;0.90;0.60;;;;;;;;;;5072636;28;20020;-45
2022/01/03 03:25:50;;;;;;;2.75;1.27;;;;;;;;;;5071943;28;20021;-45
2022/01/03 03:28:16;;;;;;;1.27;0.63;;;;;;;;;;5072101;28;20381;-51
2022/01/03 03:30:47;;;;;;;0.98;0.70;;;;;;;;;;5071642;28;20095;-45
2022/01/03 03:33:16;;;;;;;4.30;1.17;;;;;;;;;;5072736;28;20032;-47
2022/01/03 03:35:42;;;;;;;1.48;1.00;;;;;;;;;;5071631;28;20036;-44
2022/01/03 03:38:08;;;;;;;2.00;0.90;;;;;;;;;;5072384;28;20123;-46
2022/01/03 03:40:34;;;;;;;1.30;0.80;;;;;;;;;;5071374;28;20025;-44
2022/01/03 03:43:01;;;;;;;4.95;1.00;;;;;;;;;;5072163;28;20028;-46
2022/01/03 03:45:27;;;;;;;1.60;0.80;;;;;;;;;;5071970;28;20103;-51
2022/01/03 03:47:54;;;;;;;1.83;0.88;;;;;;;;;;5071957;28;20029;-45
2022/01/03 03:50:20;;;;;;;1.75;0.90;;;;;;;;;;5072073;28;20035;-46
2022/01/03 03:52:47;;;;;;;3.00;0.90;;;;;;;;;;5071143;28;20033;-45
2022/01/03 03:55:13;;;;;;;0.80;0.73;;;;;;;;;;5072147;28;20063;-45
2022/01/03 03:57:39;;;;;;;1.83;0.80;;;;;;;;;;5071388;28;20035;-44
2022/01/03 04:00:07;;;;;;;2.08;1.00;;;;;;;;;;5072094;28;20037;-45
2022/01/03 04:02:33;;;;;;;2.90;0.90;;;;;;;;;;5071225;28;20029;-44
2022/01/03 04:05:00;;;;;;;1.02;0.63;;;;;;;;;;5072208;28;20036;-44
2022/01/03 04:07:26;;;;;;;1.40;0.90;;;;;;;;;;5071774;28;20024;-44
2022/01/03 04:09:55;;;;;;;3.90;1.50;;;;;;;;;;5071155;28;20079;-45
2022/01/03 04:12:21;;;;;;;1.20;0.68;;;;;;;;;;5071838;28;20017;-46
2022/01/03 04:14:47;;;;;;;2.05;1.00;;;;;;;;;;5071233;28;20051;-48
2022/01/03 04:17:14;;;;;;;1.42;0.80;;;;;;;;;;5072022;28;20115;-45
2022/01/03 04:19:40;;;;;;;1.98;1.40;;;;;;;;;;5071100;28;20035;-45
2022/01/03 04:22:06;;;;;;;1.00;0.68;;;;;;;;;;5071803;28;20125;-45
2022/01/03 04:24:32;;;;;;;1.20;0.80;;;;;;;;;;5055684;28;20049;-46
2022/01/03 04:26:58;;;;;;;1.42;0.68;;;;;;;;;;5052084;28;20488;-45
2022/01/03 04:29:24;;;;;;;2.17;1.23;;;;;;;;;;5051861;28;20417;-44
2022/01/03 04:31:50;;;;;;;1.52;0.70;;;;;;;;;;5050851;28;20079;-44
2022/01/03 04:34:16;;;;;;;2.47;0.90;;;;;;;;;;5051748;28;20071;-45
2022/01/03 04:36:42;;;;;;;2.78;0.98;;;;;;;;;;5050624;28;20045;-44
2022/01/03 04:39:09;;;;;;;1.92;0.80;;;;;;;;;;5051742;28;20021;-44
2022/01/03 04:41:35;;;;;;;1.05;0.65;;;;;;;;;;5050710;28;20426;-44
2022/01/03 04:44:05;;;;;;;1.92;0.70;;;;;;;;;;5051576;28;20052;-45
2022/01/03 04:46:31;;;;;;;1.77;0.70;;;;;;;;;;5050700;28;20537;-51
2022/01/03 04:48:57;;;;;;;1.85;0.95;;;;;;;;;;5051996;28;20033;-44
2022/01/03 04:51:23;;;;;;;1.33;0.70;;;;;;;;;;5051266;28;20033;-44
2022/01/03 04:53:49;;;;;;;2.30;0.73;;;;;;;;;;5050691;28;20277;-42
2022/01/03 04:56:15;;;;;;;2.92;1.17;;;;;;;;;;5051468;28;20029;-43
2022/01/03 04:58:41;;;;;;;5.97;1.55;;;;;;;;;;5050603;28;20078;-47
2022/01/03 05:01:08;;;;;;;2.85;1.30;;;;;;;;;;5051568;28;20102;-44
2022/01/03 05:03:34;;;;;;;1.85;0.82;;;;;;;;;;5054528;28;20048;-47
2022/01/03 05:06:01;;;;;;;1.98;0.82;;;;;;;;;;5055009;28;20032;-46
2022/01/03 05:08:28;;;;;;;1.08;0.60;;;;;;;;;;5055190;28;20025;-43
2022/01/03 05:10:55;;;;;;;1.88;0.85;;;;;;;;;;5054347;28;20029;-43
2022/01/03 05:13:21;;;;;;;2.05;1.02;;;;;;;;;;5037379;28;20448;-42
2022/01/03 05:15:47;;;;;;;1.52;0.65;;;;;;;;;;5054071;28;20105;-43
2022/01/03 05:18:13;;;;;;;2.70;0.90;;;;;;;;;;5054759;28;20505;-43
2022/01/03 05:20:39;;;;;;;2.20;1.63;;;;;;;;;;5054082;28;20480;-43
2022/01/03 05:23:05;;;;;;;1.17;0.70;;;;;;;;;;5058122;28;20538;-43
2022/01/03 05:25:31;;;;;;;0.98;0.52;;;;;;;;;;5074373;28;20024;-51
2022/01/03 05:27:57;;;;;;;8.07;1.95;;;;;;;;;;5074927;28;20028;-44
2022/01/03 05:30:23;;;;;;;1.52;0.80;;;;;;;;;;5074682;28;20369;-44
2022/01/03 05:32:49;;;;;;;3.22;0.75;;;;;;;;;;5073862;28;20213;-45
2022/01/03 05:35:15;;;;;;;1.88;0.90;;;;;;;;;;5074751;28;20021;-44
2022/01/03 05:37:41;;;;;;;2.10;0.80;;;;;;;;;;5073844;28;20053;-44
2022/01/03 05:40:08;;;;;;;2.75;0.60;;;;;;;;;;5074625;28;20033;-44
2022/01/03 05:42:34;;;;;;;2.08;0.50;;;;;;;;;;5073752;28;20032;-52
2022/01/03 05:45:00;;;;;;;1.58;0.60;;;;;;;;;;5074502;28;20028;-48
2022/01/03 05:47:26;;;;;;;1.48;0.65;;;;;;;;;;5074122;28;20362;-45
2022/01/03 05:49:53;;;;;;;2.50;1.00;;;;;;;;;;5073766;28;20017;-48
2022/01/03 05:52:19;;;;;;;1.60;0.70;;;;;;;;;;5074324;28;20024;-50
2022/01/03 05:54:45;;;;;;;3.42;0.80;;;;;;;;;;5031144;28;20037;-44
2022/01/03 05:57:11;;;;;;;1.02;0.55;;;;;;;;;;5031909;28;20506;-46
2022/01/03 05:59:37;;;;;;;1.52;0.77;;;;;;;;;;5031264;28;20103;-46
2022/01/03 06:02:04;;;;;;;1.95;0.80;;;;;;;;;;5031622;28;20037;-45
2022/01/03 06:04:56;;;;;;;1.17;0.50;;;;;;;;;;5015178;28;20503;-52
2022/01/03 06:07:22;;;;;;;2.92;0.80;;;;;;;;;;5031554;28;20413;-46
2022/01/03 06:09:49;;;;;;;2.88;0.60;;;;;;;;;;5030986;28;20037;-46
2022/01/03 06:12:17;;;;;;;2.38;0.75;;;;;;;;;;5031303;28;20026;-45
2022/01/03 06:14:43;;;;;;;3.90;0.63;;;;;;;;;;5029767;28;20041;-48
2022/01/03 06:17:09;;;;;;;4.97;0.60;;;;;;;;;;5031254;28;20151;-46
2022/01/03 06:19:36;;;;;;;3.22;0.57;;;;;;;;;;5030974;28;20120;-48
2022/01/03 06:22:03;;;;;;;3.10;0.90;;;;;;;;;;5031550;28;20033;-45
2022/01/03 06:24:30;;;;;;;1.48;0.73;;;;;;;;;;5016632;28;20033;-47
2022/01/03 06:26:56;;;;;;;2.15;0.70;;;;;;;;;;5052647;28;20090;-45
2022/01/03 06:29:22;;;;;;;4.25;0.88;;;;;;;;;;5053953;28;20047;-46
2022/01/03 06:31:48;;;;;;;2.70;0.98;;;;;;;;;;5052919;28;20029;-45
2022/01/03 06:34:16;;;;;;;2.92;1.00;;;;;;;;;;5053388;28;20094;-44
2022/01/03 06:36:42;;;;;;;1.48;0.90;;;;;;;;;;5052239;28;20049;-45
2022/01/03 06:39:09;;;;;;;3.00;0.85;;;;;;;;;;5053384;28;20549;-45
2022/01/03 06:41:36;;;;;;;4.03;0.63;;;;;;;;;;5059818;28;20111;-52
2022/01/03 06:44:02;;;;;;;2.25;0.80;;;;;;;;;;5072959;28;20584;-45
2022/01/03 06:46:28;;;;;;;4.43;0.70;;;;;;;;;;5067520;28;20470;-43
2022/01/03 06:48:54;;;;;;;3.25;0.80;;;;;;;;;;5062402;28;20096;-45
2022/01/03 06:51:20;;;;;;;1.75;0.60;;;;;;;;;;5061576;28;20529;-44
2022/01/03 06:53:46;;;;;;;1.80;0.60;;;;;;;;;;5061567;28;20095;-44
2022/01/03 06:56:12;;;;;;;1.00;0.57;;;;;;;;;;5068976;28;20104;-45
2022/01/03 06:58:38;;;;;;;4.00;0.65;;;;;;;;;;5072144;28;20103;-44
2022/01/03 07:01:06;;;;;;;2.70;0.80;;;;;;;;;;5073118;28;20051;-44
2022/01/03 07:03:32;;;;;;;1.63;1.00;;;;;;;;;;5072854;28;20064;-44
2022/01/03 07:05:58;;;;;;;3.70;0.70;;;;;;;;;;5071741;28;20103;-45
2022/01/03 07:08:24;;;;;;;2.00;0.70;;;;;;;;;;5072454;28;20428;-47
2022/01/03 07:10:50;;;;;;;3.40;1.00;;;;;;;;;;5071874;28;20112;-44
2022/01/03 07:13:16;;;;;;;3.80;0.90;;;;;;;;;;5072544;28;20529;-44
2022/01/03 07:21:17;;;;;;;2.00;0.73;;;;;;;;;;5071576;28;20117;-44
2022/01/03 07:23:43;;;;;;;2.22;1.05;;;;;;;;;;5063096;28;20031;-47
2022/01/03 07:26:09;;;;;;;1.85;0.95;;;;;;;;;;5052585;28;20052;-44
2022/01/03 07:28:35;;;;;;;3.53;0.80;;;;;;;;;;5060803;28;20487;-53
2022/01/03 07:31:01;;;;;;;8.68;1.05;;;;;;;;;;5060016;28;20025;-46
2022/01/03 07:33:27;;;;;;;2.90;0.95;;;;;;;;;;5060915;28;20055;-46
2022/01/03 07:35:53;;;;;;;7.25;1.00;;;;;;;;;;5058428;28;20035;-45
2022/01/03 07:38:19;;;;;;;6.55;1.17;;;;;;;;;;5051946;28;20060;-48
2022/01/03 07:40:45;;;;;;;5.35;1.20;;;;;;;;;;5051649;28;20056;-49
2022/01/03 07:43:11;;;;;;;4.18;1.00;;;;;;;;;;5051952;28;20481;-45
2022/01/03 07:45:37;;;;;;;4.97;0.82;;;;;;;;;;5051788;28;20028;-54
2022/01/03 07:48:03;;;;;;;2.45;1.02;;;;;;;;;;5052004;28;20021;-46
2022/01/03 07:50:30;;;;;;;7.15;1.67;;;;;;;;;;5051735;28;20087;-46
2022/01/03 07:52:58;;;;;;;6.30;1.30;;;;;;;;;;5051507;28;20017;-48
2022/01/03 07:55:24;;;;;;;3.88;1.10;;;;;;;;;;5051913;28;20024;-45
2022/01/03 07:57:50;;;;;;;9.23;1.92;;;;;;;;;;5050971;28;20021;-45
2022/01/03 08:00:17;;;;;;;28.00;2.88;;;;;;;;;;5051767;28;20068;-48
2022/01/03 08:02:44;;;;;;;6.93;1.73;;;;;;;;;;5051037;28;20452;-44
2022/01/03 08:05:12;;;;;;;5.25;1.13;;;;;;;;;;5051717;28;20021;-45
2022/01/03 08:07:38;;;;;;;6.50;1.50;;;;;;;;;;5051500;28;20036;-55
2022/01/03 08:10:05;;;;;;;4.72;1.40;;;;;;;;;;5051871;28;20095;-44
2022/01/03 08:12:31;;;;;;;10.50;1.50;;;;;;;;;;5051552;28;20108;-48
2022/01/03 08:14:58;;;;;;;8.43;1.73;;;;;;;;;;5050944;28;20199;-45
2022/01/03 08:17:24;;;;;;;8.35;1.00;;;;;;;;;;5051743;28;20024;-45
2022/01/03 08:19:50;;;;;;;7.60;1.75;;;;;;;;;;5050816;28;20959;-45
2022/01/03 08:22:17;;;;;;;13.10;1.58;;;;;;;;;;5073052;28;20044;-46
2022/01/03 08:24:44;;;;;;;8.68;1.60;;;;;;;;;;5055136;28;20466;-45
2022/01/03 08:27:11;;;;;;;7.95;2.20;;;;;;;;;;5051559;28;20499;-49
2022/01/03 08:29:37;;;;;;;6.07;1.20;;;;;;;;;;5034317;28;20021;-56
2022/01/03 08:32:03;;;;;;;5.15;1.23;;;;;;;;;;5049461;28;20051;-45
2022/01/03 08:34:29;;;;;;;9.27;1.40;;;;;;;;;;5050638;28;20024;-48
2022/01/03 08:36:55;;;;;;;9.57;1.77;;;;;;;;;;5052119;28;20044;-48
2022/01/03 08:39:21;;;;;;;7.63;1.80;;;;;;;;;;5055391;28;20386;-46
2022/01/03 08:41:47;;;;;;;9.35;1.75;;;;;;;;;;5054492;28;20036;-46
2022/01/03 08:44:13;;;;;;;7.38;1.05;;;;;;;;;;5054345;28;20039;-47
2022/01/03 08:46:40;;;;;;;6.70;1.58;;;;;;;;;;5081971;28;20024;-47
2022/01/03 08:49:06;;;;;;;7.22;1.50;;;;;;;;;;5096780;28;20449;-45
2022/01/03 08:51:32;;;;;;;6.57;1.67;;;;;;;;;;5059275;28;20539;-47
2022/01/03 08:53:59;;;;;;;3.78;1.00;;;;;;;;;;5054749;28;20029;-45
2022/01/03 08:56:25;;;;;;;6.47;1.20;;;;;;;;;;5055297;28;20021;-45
2022/01/03 08:58:51;;;;;;;6.50;1.73;;;;;;;;;;5053886;28;20432;-48
2022/01/03 09:01:17;;;;;;;6.85;1.17;;;;;;;;;;5055199;28;20112;-45
2022/01/03 09:03:44;;;;;;;6.18;2.03;;;;;;;;;;5052278;28;20021;-45
2022/01/03 09:06:10;;;;;;;6.70;1.48;;;;;;;;;;5055956;28;20032;-49
2022/01/03 09:08:36;;;;;;;4.25;1.38;;;;;;;;;;5056451;28;20059;-45
2022/01/03 09:11:02;;;;;;;8.10;1.55;;;;;;;;;;5054095;28;20927;-45
2022/01/03 09:13:28;;;;;;;4.70;1.65;;;;;;;;;;5054924;28;20115;-49
2022/01/03 09:15:54;;;;;;;7.43;1.83;;;;;;;;;;5066062;28;20076;-47
2022/01/03 09:18:26;;;;;;;4.07;1.40;;;;;;;;;;5074942;28;20027;-45
2022/01/03 09:20:53;;;;;;;3.33;1.40;;;;;;;;;;5071279;28;20481;-45
2022/01/03 09:23:25;;;;;;;3.50;1.45;;;;;;;;;;5069698;28;20025;-46
2022/01/03 09:28:52;;;;;;;5.50;1.95;;;;;;;;;;5054538;28;20071;-45
2022/01/03 09:31:19;;;;;;;5.68;1.55;;;;;;;;;;5051715;28;20154;-45
2022/01/03 09:33:45;;;;;;;6.07;1.45;;;;;;;;;;5065842;28;20035;-45
2022/01/03 09:36:11;;;;;;;4.32;1.45;;;;;;;;;;5075327;28;20033;-44
2022/01/03 09:38:38;;;;;;;9.10;2.17;;;;;;;;;;5074058;28;20064;-46
2022/01/03 09:41:05;;;;;;;5.60;1.55;;;;;;;;;;5073315;28;20032;-48
2022/01/03 09:43:36;;;;;;;5.47;1.70;;;;;;;;;;5074254;28;20466;-49
2022/01/03 09:46:03;;;;;;;5.03;1.27;;;;;;;;;;5073312;28;20028;-46
2022/01/03 09:48:29;;;;;;;5.78;1.42;;;;;;;;;;5073640;28;20350;-47
2022/01/03 09:50:56;;;;;;;6.80;1.42;;;;;;;;;;5059674;28;20040;-45
2022/01/03 09:53:22;;;;;;;3.67;1.52;;;;;;;;;;5053822;28;20474;-45
2022/01/03 09:55:49;;;;;;;4.63;1.42;;;;;;;;;;5053102;28;20556;-45
2022/01/03 09:58:15;;;;;;;4.15;2.45;;;;;;;;;;5053676;28;20370;-47
2022/01/03 10:00:41;;;;;;;4.07;2.10;;;;;;;;;;5053675;28;20036;-53
2022/01/03 10:03:07;;;;;;;4.03;1.90;;;;;;;;;;5066003;28;20036;-46
2022/01/03 10:05:33;;;;;;;4.63;1.67;;;;;;;;;;5055498;28;20371;-48
2022/01/03 10:07:59;;;;;;;3.05;1.50;;;;;;;;;;5072502;28;20081;-46
2022/01/03 10:10:27;;;;;;;4.72;1.45;;;;;;;;;;5073670;28;20036;-45
2022/01/03 10:12:53;;;;;;;5.65;1.30;;;;;;;;;;5072943;28;20027;-46
2022/01/03 10:15:20;;;;;;;4.00;0.90;;;;;;;;;;5073661;28;20029;-45
2022/01/03 10:17:47;;;;;;;8.82;3.25;;;;;;;;;;5072687;28;20086;-46
2022/01/03 10:20:13;;;;;;;4.43;1.48;;;;;;;;;;5071829;28;20432;-45
2022/01/03 10:22:41;;;;;;;5.78;1.15;;;;;;;;;;5072777;28;20031;-45
2022/01/03 10:25:12;;;;;;;8.15;2.08;;;;;;;;;;5053242;28;20033;-45
2022/01/03 10:27:55;;;;;;;4.67;1.20;;;;;;;;;;5052539;28;20147;-45
2022/01/03 10:30:38;;;;;;;6.35;1.42;;;;;;;;;;5052919;28;20029;-45
2022/01/03 10:33:05;;;;;;;2.55;1.02;;;;;;;;;;5065505;28;20190;-45
2022/01/03 10:35:36;;;;;;;10.07;2.42;;;;;;;;;;5073177;28;20027;-48
2022/01/03 10:38:02;;;;;;;2.72;1.08;;;;;;;;;;5072281;28;20056;-44
2022/01/03 10:40:29;;;;;;;3.88;1.25;;;;;;;;;;5073217;28;20369;-47
2022/01/03 10:42:58;;;;;;;4.90;1.02;;;;;;;;;;5072412;28;20020;-44
2022/01/03 10:45:42;;;;;;;2.70;1.25;;;;;;;;;;5073297;28;20060;-45
2022/01/03 10:48:27;;;;;;;3.78;1.25;;;;;;;;;;5066303;28;20024;-49
2022/01/03 10:50:55;;;;;;;5.00;1.60;;;;;;;;;;5071045;28;20041;-45
2022/01/03 10:53:34;;;;;;;4.10;1.10;;;;;;;;;;5073109;28;20017;-48
2022/01/03 10:56:19;;;;;;;3.72;0.85;;;;;;;;;;5054247;28;20107;-44
2022/01/03 10:58:45;;;;;;;3.78;1.30;;;;;;;;;;5069253;28;20019;-49
2022/01/03 11:01:20;;;;;;;4.38;1.00;;;;;;;;;;5093284;28;20133;-44
2022/01/03 11:03:47;;;;;;;3.78;0.90;;;;;;;;;;5074095;28;20404;-53
2022/01/03 11:06:24;;;;;;;6.45;1.50;;;;;;;;;;5072078;28;20020;-45
2022/01/03 11:11:37;;;;;;;3.60;1.33;;;;;;;;;;5064000;28;20038;-47
2022/01/03 11:14:03;;;;;;;2.95;1.02;;;;;;;;;;5073953;28;20029;-47
2022/01/03 11:16:33;;;;;;;3.88;1.58;;;;;;;;;;5072767;28;20031;-48
2022/01/03 11:18:59;;;;;;;2.95;0.90;;;;;;;;;;5071729;28;20027;-49
2022/01/03 11:21:26;;;;;;;4.10;0.95;;;;;;;;;;5071596;28;20040;-44
2022/01/03 11:24:01;;;;;;;6.82;2.00;;;;;;;;;;5061776;28;20470;-45
2022/01/03 11:26:30;;;;;;;3.78;1.00;;;;;;;;;;5052264;28;20528;-45
2022/01/03 11:28:56;;;;;;;7.75;1.30;;;;;;;;;;5051634;28;20079;-44
2022/01/03 11:31:23;;;;;;;6.97;1.40;;;;;;;;;;5052252;28;20033;-44
2022/01/03 11:33:50;;;;;;;4.50;1.33;;;;;;;;;;5051068;28;20020;-51
2022/01/03 11:36:17;;;;;;;5.60;1.05;;;;;;;;;;5051743;28;20098;-44
2022/01/03 11:38:44;;;;;;;5.72;1.55;;;;;;;;;;5052237;28;20033;-45
2022/01/03 11:41:11;;;;;;;9.85;1.42;;;;;;;;;;5050983;28;20037;-49
2022/01/03 11:43:38;;;;;;;4.65;1.40;;;;;;;;;;5051883;28;20377;-44
2022/01/03 11:46:05;;;;;;;3.95;1.60;;;;;;;;;;5050640;28;20029;-51
2022/01/03 11:48:31;;;;;;;5.88;1.63;;;;;;;;;;5052269;28;20029;-45
2022/01/03 11:51:02;;;;;;;9.32;1.67;;;;;;;;;;5050441;28;20032;-46
2022/01/03 11:53:29;;;;;;;4.88;1.48;;;;;;;;;;5051671;28;20021;-44
2022/01/03 11:55:56;;;;;;;4.47;1.20;;;;;;;;;;5050751;28;20048;-47
2022/01/03 11:59:35;;;;;;;5.15;1.67;;;;;;;;;;5051377;28;20029;-45
2022/01/03 12:04:24;;;;;;;3.67;1.30;;;;;;;;;;5051912;28;20143;-45
2022/01/03 12:07:01;;;;;;;2.85;1.05;;;;;;;;;;5051111;28;20029;-53
2022/01/03 12:09:29;;;;;;;4.55;1.15;;;;;;;;;;5051888;28;20025;-46
2022/01/03 12:11:56;;;;;;;3.90;1.42;;;;;;;;;;5050221;28;20048;-45
2022/01/03 12:14:23;;;;;;;3.20;1.38;;;;;;;;;;5051624;28;20021;-44
2022/01/03 12:16:49;;;;;;;3.75;1.15;;;;;;;;;;5051013;28;20478;-53
2022/01/03 12:19:27;;;;;;;12.63;1.73;;;;;;;;;;5034566;28;20029;-45
2022/01/03 12:21:55;;;;;;;3.50;1.00;;;;;;;;;;5050723;28;20041;-44
2022/01/03 12:24:27;;;;;;;5.80;1.73;;;;;;;;;;5064954;28;20020;-45
2022/01/03 12:27:14;;;;;;;5.47;1.55;;;;;;;;;;5070514;28;20374;-47
2022/01/03 12:32:28;;;;;;;4.10;1.23;;;;;;;;;;5050574;28;20084;-44
2022/01/03 12:35:13;;;;;;;4.60;0.93;;;;;;;;;;5050199;28;20047;-44
2022/01/03 12:37:43;;;;;;;4.85;1.13;;;;;;;;;;5051108;28;20389;-44
2022/01/03 12:40:18;;;;;;;1.83;0.80;;;;;;;;;;5050278;28;20127;-45
2022/01/03 12:42:54;;;;;;;5.22;1.35;;;;;;;;;;5051011;28;20075;-44
2022/01/03 12:45:32;;;;;;;5.00;1.15;;;;;;;;;;5051704;28;20424;-47
2022/01/03 12:48:10;;;;;;;6.03;1.20;;;;;;;;;;5050365;28;20358;-45
2022/01/03 12:50:40;;;;;;;3.08;1.38;;;;;;;;;;5050965;28;20370;-45
2022/01/03 12:53:11;;;;;;;5.53;1.40;;;;;;;;;;5050501;28;20366;-51
2022/01/03 12:55:43;;;;;;;2.78;1.00;;;;;;;;;;5051384;28;20025;-44
2022/01/03 12:58:18;;;;;;;4.20;1.20;;;;;;;;;;5050278;28;20037;-44
2022/01/03 13:00:45;;;;;;;5.15;0.90;;;;;;;;;;5051257;28;20481;-45
2022/01/03 13:03:20;;;;;;;5.30;1.63;;;;;;;;;;5049716;28;20621;-48
2022/01/03 13:06:05;;;;;;;3.92;1.23;;;;;;;;;;5051284;28;20033;-45
2022/01/03 13:08:31;;;;;;;3.05;1.00;;;;;;;;;;5051239;28;20056;-46
2022/01/03 13:11:00;;;;;;;7.13;1.50;;;;;;;;;;5050347;28;20458;-44
2022/01/03 13:13:28;;;;;;;4.18;1.08;;;;;;;;;;5051191;28;20036;-44
2022/01/03 13:15:54;;;;;;;2.80;1.73;;;;;;;;;;5050332;28;20355;-52
2022/01/03 13:18:20;;;;;;;4.90;1.15;;;;;;;;;;5050553;28;20025;-44
2022/01/03 13:20:59;;;;;;;2.85;1.30;;;;;;;;;;5043645;28;20037;-45
2022/01/03 13:23:25;;;;;;;2.72;0.80;;;;;;;;;;5067763;28;20362;-44
2022/01/03 13:26:11;;;;;;;5.10;1.98;;;;;;;;;;5054458;28;20466;-52
2022/01/03 13:28:50;;;;;;;6.25;1.52;;;;;;;;;;5054332;28;20500;-44
2022/01/03 13:31:17;;;;;;;3.85;1.05;;;;;;;;;;5054237;28;20028;-44
2022/01/03 13:33:43;;;;;;;3.33;0.77;;;;;;;;;;5054035;28;20386;-46
2022/01/03 13:36:14;;;;;;;4.00;1.63;;;;;;;;;;5053598;28;20025;-44
2022/01/03 13:38:41;;;;;;;1.90;0.90;;;;;;;;;;5054637;28;20386;-45
2022/01/03 13:41:20;;;;;;;3.70;0.60;;;;;;;;;;5053084;28;20025;-44
2022/01/03 13:43:54;;;;;;;2.08;0.63;;;;;;;;;;5054090;28;20066;-47
2022/01/03 13:49:32;;;;;;;5.50;1.00;;;;;;;;;;5053485;28;20117;-48
2022/01/03 13:51:58;;;;;;;;;;;;;;;;;;5049893;28;20053;-45
2022/01/03 13:54:24;;;;;;;3.00;0.80;;;;;;;;;;5053662;28;19976;-44
2022/01/03 13:56:50;;;;;;;4.03;1.50;;;;;;;;;;5053954;28;20029;-44
2022/01/03 13:59:17;;;;;;;2.53;0.85;;;;;;;;;;5052576;28;20474;-47
2022/01/03 14:01:43;;;;;;;3.38;1.30;;;;;;;;;;5059066;28;20068;-44
2022/01/03 14:04:09;;;;;;;3.63;1.20;;;;;;;;;;5055353;28;20025;-46
2022/01/03 14:06:35;;;;;;;6.53;1.65;;;;;;;;;;5054480;28;20025;-49
2022/01/03 14:09:20;;;;;;;4.25;1.10;;;;;;;;;;5052926;28;20033;-44
2022/01/03 14:11:46;;;;;;;3.63;1.23;;;;;;;;;;5053731;28;20033;-47
2022/01/03 14:14:16;;;;;;;2.30;0.98;;;;;;;;;;5052409;28;20024;-44
2022/01/03 14:16:52;;;;;;;3.13;1.10;;;;;;;;;;5053542;28;20193;-43
2022/01/03 14:19:18;;;;;;;3.22;1.55;;;;;;;;;;5053259;28;20025;-44
2022/01/03 14:21:44;;;;;;;3.17;1.00;;;;;;;;;;5072083;28;20028;-45
2022/01/03 14:24:11;;;;;;;3.88;1.10;;;;;;;;;;5060302;28;20020;-45
2022/01/03 14:26:38;;;;;;;3.13;1.00;;;;;;;;;;5053631;28;20453;-44
2022/01/03 14:29:07;;;;;;;4.05;0.93;;;;;;;;;;5052659;28;20025;-44
2022/01/03 14:31:44;;;;;;;1.80;0.80;;;;;;;;;;5053304;28;20025;-47
2022/01/03 14:34:10;;;;;;;2.55;1.10;;;;;;;;;;5053130;28;20085;-46
2022/01/03 14:36:39;;;;;;;4.00;1.10;;;;;;;;;;5072987;28;20059;-44
2022/01/03 14:39:06;;;;;;;7.65;1.30;;;;;;;;;;5072283;28;20427;-44
2022/01/03 14:41:32;;;;;;;3.33;0.90;;;;;;;;;;5072940;28;20509;-44
2022/01/03 14:43:59;;;;;;;2.03;0.93;;;;;;;;;;5071930;28;20649;-44
2022/01/03 14:46:44;;;;;;;2.30;0.70;;;;;;;;;;5073019;28;20521;-44
2022/01/03 14:49:20;;;;;;;3.28;1.65;;;;;;;;;;5066521;28;20027;-44
2022/01/03 14:51:49;;;;;;;3.40;0.90;;;;;;;;;;5052992;28;20053;-45
2022/01/03 14:54:29;;;;;;;2.30;0.90;;;;;;;;;;5052050;28;20021;-46
2022/01/03 14:56:55;;;;;;;2.78;1.25;;;;;;;;;;5052801;28;20099;-51
2022/01/03 14:59:22;;;;;;;1.42;0.80;;;;;;;;;;5052401;28;20031;-46
2022/01/03 15:01:49;;;;;;;2.17;0.95;;;;;;;;;;5064869;28;20370;-44
2022/01/03 15:04:15;;;;;;;2.72;1.08;;;;;;;;;;5071793;28;20021;-46
2022/01/03 15:06:42;;;;;;;2.60;0.93;;;;;;;;;;5072943;28;20365;-44
2022/01/03 15:09:08;;;;;;;2.45;0.77;;;;;;;;;;5072066;28;20094;-44
2022/01/03 15:11:34;;;;;;;2.45;0.95;;;;;;;;;;5072176;28;20033;-47